RYR4YZ LIME-LFML
Flight info
| Callsign | RYR4YZ |
|---|---|
| Flight time | 0h 53m |
| Altitude | 29000 |
| Route | VOG Q712 ENOBA Z185 BORDI DCT PIGOS DCT STP A3 RUBIT G7 LANKO |
| Aircraft | B738/M-SDE2E3FGHIRWXY/LB1 |
Departure
| Time | 2026-05-05 12:35 |
|---|---|
| Airport | Il Caravaggio International Airport (LIME) |
Arrival
| Time | 2026-05-05 13:28 |
|---|---|
| Airport | Marseille Provence Airport (LFML) |
| Time | Latitude | Longitude | Altitude | Speed | Heading |
|---|---|---|---|---|---|
| 2026-05-05 12:28 | 45.66718 | 9.69620 | 786 ft | 0 kts | 195° |
| 2026-05-05 12:29 | 45.66732 | 9.69625 | 786 ft | 4 kts | 195° |
| 2026-05-05 12:29 | 45.66758 | 9.69635 | 786 ft | 4 kts | 195° |
| 2026-05-05 12:29 | 45.66780 | 9.69643 | 786 ft | 4 kts | 200° |
| 2026-05-05 12:30 | 45.66799 | 9.69662 | 786 ft | 4 kts | 252° |
| 2026-05-05 12:30 | 45.66799 | 9.69697 | 786 ft | 3 kts | 285° |
| 2026-05-05 12:30 | 45.66799 | 9.69700 | 786 ft | 1 kts | 285° |
| 2026-05-05 12:32 | 45.66802 | 9.69682 | 797 ft | 5 kts | 285° |
| 2026-05-05 12:32 | 45.66816 | 9.69608 | 776 ft | 9 kts | 285° |
| 2026-05-05 12:32 | 45.66833 | 9.69518 | 786 ft | 9 kts | 284° |
| 2026-05-05 12:33 | 45.66849 | 9.69431 | 786 ft | 9 kts | 285° |
| 2026-05-05 12:33 | 45.66868 | 9.69325 | 786 ft | 14 kts | 285° |
| 2026-05-05 12:33 | 45.66895 | 9.69176 | 786 ft | 16 kts | 282° |
| 2026-05-05 12:33 | 45.66914 | 9.69025 | 786 ft | 15 kts | 294° |
| 2026-05-05 12:34 | 45.67005 | 9.68999 | 786 ft | 15 kts | 15° |
| 2026-05-05 12:34 | 45.67075 | 9.69031 | 786 ft | 9 kts | 33° |
| 2026-05-05 12:34 | 45.67075 | 9.69124 | 786 ft | 19 kts | 104° |
| 2026-05-05 12:34 | 45.66977 | 9.69653 | 786 ft | 90 kts | 105° |
| 2026-05-05 12:35 | 45.66760 | 9.70808 | 799 ft | 148 kts | 107° |
| 2026-05-05 12:35 | 45.66461 | 9.72288 | 1375 ft | 157 kts | 107° |
| 2026-05-05 12:35 | 45.66076 | 9.73815 | 2029 ft | 169 kts | 120° |
| 2026-05-05 12:35 | 45.65489 | 9.75285 | 2761 ft | 173 kts | 118° |
| 2026-05-05 12:36 | 45.64864 | 9.76921 | 3057 ft | 201 kts | 118° |
| 2026-05-05 12:36 | 45.64162 | 9.78774 | 3265 ft | 223 kts | 118° |
| 2026-05-05 12:36 | 45.63414 | 9.80751 | 3785 ft | 233 kts | 118° |
| 2026-05-05 12:36 | 45.62645 | 9.82790 | 4594 ft | 233 kts | 118° |
| 2026-05-05 12:37 | 45.61610 | 9.84619 | 5118 ft | 250 kts | 146° |
| 2026-05-05 12:37 | 45.59926 | 9.85393 | 5696 ft | 263 kts | 177° |
| 2026-05-05 12:37 | 45.58133 | 9.84904 | 6502 ft | 266 kts | 204° |
| 2026-05-05 12:37 | 45.56613 | 9.83412 | 7340 ft | 267 kts | 221° |
| 2026-05-05 12:38 | 45.55278 | 9.81562 | 8133 ft | 268 kts | 225° |
| 2026-05-05 12:38 | 45.53991 | 9.79637 | 8763 ft | 264 kts | 227° |
| 2026-05-05 12:38 | 45.52727 | 9.77722 | 9491 ft | 269 kts | 227° |
| 2026-05-05 12:38 | 45.51430 | 9.75767 | 10147 ft | 275 kts | 226° |
| 2026-05-05 12:39 | 45.50063 | 9.73722 | 10488 ft | 297 kts | 226° |
| 2026-05-05 12:39 | 45.48581 | 9.71520 | 10682 ft | 318 kts | 226° |
| 2026-05-05 12:39 | 45.47005 | 9.69197 | 11095 ft | 330 kts | 226° |
| 2026-05-05 12:39 | 45.45399 | 9.66844 | 11795 ft | 333 kts | 226° |
| 2026-05-05 12:40 | 45.43791 | 9.64473 | 12602 ft | 333 kts | 226° |
| 2026-05-05 12:40 | 45.42188 | 9.62083 | 13409 ft | 334 kts | 226° |
| 2026-05-05 12:40 | 45.40576 | 9.59688 | 14156 ft | 336 kts | 226° |
| 2026-05-05 12:40 | 45.38949 | 9.57287 | 14851 ft | 339 kts | 226° |
| 2026-05-05 12:41 | 45.37302 | 9.54874 | 15556 ft | 341 kts | 226° |
| 2026-05-05 12:41 | 45.35640 | 9.52451 | 16275 ft | 343 kts | 226° |
| 2026-05-05 12:41 | 45.34531 | 9.50841 | 16743 ft | 345 kts | 226° |
| 2026-05-05 12:41 | 45.32844 | 9.48396 | 17446 ft | 348 kts | 226° |
| 2026-05-05 12:42 | 45.31142 | 9.45938 | 18130 ft | 350 kts | 226° |
| 2026-05-05 12:42 | 45.29422 | 9.43458 | 18729 ft | 354 kts | 226° |
| 2026-05-05 12:42 | 45.27687 | 9.40961 | 19282 ft | 357 kts | 226° |
| 2026-05-05 12:42 | 45.25936 | 9.38442 | 19829 ft | 360 kts | 226° |
| 2026-05-05 12:43 | 45.24167 | 9.35901 | 20376 ft | 363 kts | 226° |
| 2026-05-05 12:43 | 45.22382 | 9.33340 | 20919 ft | 366 kts | 226° |
| 2026-05-05 12:43 | 45.20581 | 9.30759 | 21489 ft | 370 kts | 226° |
| 2026-05-05 12:43 | 45.18763 | 9.28157 | 22027 ft | 373 kts | 226° |
| 2026-05-05 12:44 | 45.16931 | 9.25536 | 22618 ft | 375 kts | 226° |
| 2026-05-05 12:44 | 45.15103 | 9.22924 | 23404 ft | 371 kts | 226° |
| 2026-05-05 12:44 | 45.13291 | 9.20337 | 24081 ft | 368 kts | 226° |
| 2026-05-05 12:44 | 45.11496 | 9.17777 | 24704 ft | 365 kts | 226° |
| 2026-05-05 12:45 | 45.09710 | 9.15232 | 25317 ft | 363 kts | 226° |
| 2026-05-05 12:45 | 45.07938 | 9.12708 | 25932 ft | 360 kts | 226° |
| 2026-05-05 12:45 | 45.06178 | 9.10204 | 26560 ft | 357 kts | 226° |
| 2026-05-05 12:45 | 45.04430 | 9.07721 | 27180 ft | 355 kts | 226° |
| 2026-05-05 12:46 | 45.02695 | 9.05258 | 27804 ft | 353 kts | 226° |
| 2026-05-05 12:46 | 45.00971 | 9.02811 | 28395 ft | 350 kts | 226° |
| 2026-05-05 12:46 | 44.99252 | 9.00375 | 28942 ft | 350 kts | 226° |
| 2026-05-05 12:46 | 44.97530 | 8.97936 | 28945 ft | 349 kts | 226° |
| 2026-05-05 12:47 | 44.94107 | 8.93095 | 28980 ft | 349 kts | 226° |
| 2026-05-05 12:47 | 44.90668 | 8.88240 | 28992 ft | 350 kts | 226° |
| 2026-05-05 12:48 | 44.87218 | 8.83380 | 28993 ft | 351 kts | 226° |
| 2026-05-05 12:48 | 44.83763 | 8.78521 | 28977 ft | 351 kts | 226° |
| 2026-05-05 12:49 | 44.80322 | 8.73692 | 28981 ft | 346 kts | 227° |
| 2026-05-05 12:49 | 44.76955 | 8.68975 | 28994 ft | 345 kts | 226° |
| 2026-05-05 12:50 | 44.73542 | 8.64199 | 28979 ft | 347 kts | 227° |
| 2026-05-05 12:50 | 44.70119 | 8.59417 | 28976 ft | 347 kts | 226° |
| 2026-05-05 12:51 | 44.66689 | 8.54637 | 28956 ft | 347 kts | 226° |
| 2026-05-05 12:51 | 44.63263 | 8.49868 | 28969 ft | 346 kts | 226° |
| 2026-05-05 12:52 | 44.59837 | 8.45111 | 28977 ft | 346 kts | 226° |
| 2026-05-05 12:52 | 44.56413 | 8.40362 | 28973 ft | 345 kts | 226° |
| 2026-05-05 12:53 | 44.52999 | 8.35636 | 28979 ft | 345 kts | 226° |
| 2026-05-05 12:53 | 44.49581 | 8.30913 | 28981 ft | 345 kts | 226° |
| 2026-05-05 12:54 | 44.44450 | 8.23839 | 28974 ft | 345 kts | 226° |
| 2026-05-05 12:55 | 44.41026 | 8.19128 | 28976 ft | 345 kts | 226° |
| 2026-05-05 12:55 | 44.37602 | 8.14426 | 28976 ft | 344 kts | 226° |
| 2026-05-05 12:56 | 44.34182 | 8.09737 | 28979 ft | 344 kts | 226° |
| 2026-05-05 12:56 | 44.30755 | 8.05044 | 28966 ft | 346 kts | 226° |
| 2026-05-05 12:57 | 44.27342 | 8.00380 | 28964 ft | 346 kts | 226° |
| 2026-05-05 12:57 | 44.23898 | 7.95686 | 28993 ft | 346 kts | 226° |
| 2026-05-05 12:58 | 44.20451 | 7.90993 | 28969 ft | 345 kts | 226° |
| 2026-05-05 12:58 | 44.17029 | 7.86341 | 28974 ft | 342 kts | 226° |
| 2026-05-05 12:59 | 44.13636 | 7.81735 | 28947 ft | 340 kts | 226° |
| 2026-05-05 12:59 | 44.10249 | 7.77153 | 28954 ft | 340 kts | 226° |
| 2026-05-05 13:00 | 44.05128 | 7.70227 | 28977 ft | 344 kts | 226° |
| 2026-05-05 13:01 | 43.98285 | 7.61003 | 28964 ft | 343 kts | 226° |
| 2026-05-05 13:01 | 43.94864 | 7.56403 | 28966 ft | 342 kts | 226° |
| 2026-05-05 13:02 | 43.91457 | 7.51832 | 28975 ft | 340 kts | 226° |
| 2026-05-05 13:02 | 43.88072 | 7.47297 | 28958 ft | 337 kts | 226° |
| 2026-05-05 13:03 | 43.84703 | 7.42790 | 28980 ft | 337 kts | 226° |
| 2026-05-05 13:03 | 43.81326 | 7.38284 | 28969 ft | 337 kts | 226° |
| 2026-05-05 13:04 | 43.77942 | 7.33779 | 28951 ft | 338 kts | 226° |
| 2026-05-05 13:04 | 43.74725 | 7.29115 | 28828 ft | 331 kts | 235° |
| 2026-05-05 13:05 | 43.73538 | 7.26441 | 28643 ft | 321 kts | 240° |
| 2026-05-05 13:05 | 43.72470 | 7.23741 | 28284 ft | 319 kts | 241° |
| 2026-05-05 13:05 | 43.71417 | 7.21067 | 27935 ft | 315 kts | 241° |
| 2026-05-05 13:05 | 43.70372 | 7.18423 | 27584 ft | 312 kts | 241° |
| 2026-05-05 13:06 | 43.69334 | 7.15801 | 27220 ft | 309 kts | 241° |
| 2026-05-05 13:06 | 43.68303 | 7.13206 | 26863 ft | 307 kts | 241° |
| 2026-05-05 13:06 | 43.67280 | 7.10642 | 26490 ft | 304 kts | 240° |
| 2026-05-05 13:06 | 43.66255 | 7.08079 | 26047 ft | 305 kts | 240° |
| 2026-05-05 13:07 | 43.65232 | 7.05522 | 25640 ft | 304 kts | 240° |
| 2026-05-05 13:07 | 43.64211 | 7.02976 | 25274 ft | 302 kts | 240° |
| 2026-05-05 13:07 | 43.63195 | 7.00444 | 24918 ft | 301 kts | 241° |
| 2026-05-05 13:07 | 43.62183 | 6.97925 | 24551 ft | 300 kts | 240° |
| 2026-05-05 13:08 | 43.61174 | 6.95417 | 24195 ft | 298 kts | 240° |
| 2026-05-05 13:08 | 43.60171 | 6.92928 | 23880 ft | 296 kts | 240° |
| 2026-05-05 13:08 | 43.59174 | 6.90454 | 23507 ft | 295 kts | 240° |
| 2026-05-05 13:08 | 43.58176 | 6.87977 | 23037 ft | 295 kts | 240° |
| 2026-05-05 13:09 | 43.57194 | 6.85544 | 22704 ft | 293 kts | 240° |
| 2026-05-05 13:09 | 43.56204 | 6.83096 | 22337 ft | 292 kts | 240° |
| 2026-05-05 13:09 | 43.55216 | 6.80651 | 21930 ft | 292 kts | 240° |
| 2026-05-05 13:09 | 43.54228 | 6.78209 | 21535 ft | 291 kts | 240° |
| 2026-05-05 13:10 | 43.53242 | 6.75775 | 21133 ft | 291 kts | 240° |
| 2026-05-05 13:10 | 43.52257 | 6.73347 | 20749 ft | 290 kts | 239° |
| 2026-05-05 13:10 | 43.51273 | 6.70922 | 20362 ft | 290 kts | 239° |
| 2026-05-05 13:10 | 43.50291 | 6.68501 | 20032 ft | 289 kts | 239° |
| 2026-05-05 13:11 | 43.49311 | 6.66091 | 19678 ft | 288 kts | 239° |
| 2026-05-05 13:11 | 43.48332 | 6.63684 | 19308 ft | 288 kts | 239° |
| 2026-05-05 13:11 | 43.47353 | 6.61282 | 18948 ft | 288 kts | 239° |
| 2026-05-05 13:11 | 43.46375 | 6.58880 | 18610 ft | 287 kts | 239° |
| 2026-05-05 13:12 | 43.45401 | 6.56491 | 18301 ft | 285 kts | 239° |
| 2026-05-05 13:12 | 43.44428 | 6.54109 | 17883 ft | 285 kts | 239° |
| 2026-05-05 13:12 | 43.43457 | 6.51734 | 17536 ft | 284 kts | 239° |
| 2026-05-05 13:12 | 43.42494 | 6.49376 | 17180 ft | 282 kts | 239° |
| 2026-05-05 13:13 | 43.41532 | 6.47025 | 16840 ft | 281 kts | 239° |
| 2026-05-05 13:13 | 43.40576 | 6.44691 | 16523 ft | 280 kts | 239° |
| 2026-05-05 13:13 | 43.39623 | 6.42367 | 16181 ft | 278 kts | 239° |
| 2026-05-05 13:13 | 43.38673 | 6.40053 | 15840 ft | 277 kts | 239° |
| 2026-05-05 13:14 | 43.37729 | 6.37750 | 15519 ft | 276 kts | 239° |
| 2026-05-05 13:14 | 43.36785 | 6.35454 | 15167 ft | 275 kts | 239° |
| 2026-05-05 13:14 | 43.35846 | 6.33169 | 14837 ft | 275 kts | 239° |
| 2026-05-05 13:14 | 43.34909 | 6.30891 | 14518 ft | 273 kts | 239° |
| 2026-05-05 13:15 | 43.33974 | 6.28624 | 14158 ft | 272 kts | 239° |
| 2026-05-05 13:15 | 43.33041 | 6.26358 | 13822 ft | 272 kts | 239° |
| 2026-05-05 13:15 | 43.32189 | 6.24044 | 13487 ft | 273 kts | 251° |
| 2026-05-05 13:15 | 43.31911 | 6.21452 | 13161 ft | 274 kts | 261° |
| 2026-05-05 13:16 | 43.31720 | 6.18841 | 12798 ft | 274 kts | 261° |
| 2026-05-05 13:16 | 43.31527 | 6.16246 | 12490 ft | 272 kts | 261° |
| 2026-05-05 13:16 | 43.31328 | 6.13662 | 12159 ft | 272 kts | 261° |
| 2026-05-05 13:16 | 43.31124 | 6.11085 | 11822 ft | 271 kts | 261° |
| 2026-05-05 13:17 | 43.30919 | 6.08511 | 11536 ft | 271 kts | 261° |
| 2026-05-05 13:17 | 43.30709 | 6.05924 | 11114 ft | 274 kts | 261° |
| 2026-05-05 13:17 | 43.30497 | 6.03330 | 10846 ft | 272 kts | 261° |
| 2026-05-05 13:17 | 43.30288 | 6.00757 | 10553 ft | 270 kts | 262° |
| 2026-05-05 13:18 | 43.30194 | 5.98176 | 10192 ft | 272 kts | 266° |
| 2026-05-05 13:18 | 43.30175 | 5.95521 | 9531 ft | 285 kts | 268° |
| 2026-05-05 13:18 | 43.30169 | 5.92794 | 9149 ft | 285 kts | 268° |
| 2026-05-05 13:18 | 43.30161 | 5.90081 | 8821 ft | 284 kts | 268° |
| 2026-05-05 13:19 | 43.30146 | 5.87417 | 8504 ft | 282 kts | 268° |
| 2026-05-05 13:19 | 43.30125 | 5.84724 | 8178 ft | 281 kts | 268° |
| 2026-05-05 13:19 | 43.30101 | 5.82052 | 7873 ft | 279 kts | 268° |
| 2026-05-05 13:19 | 43.30074 | 5.79394 | 7557 ft | 277 kts | 267° |
| 2026-05-05 13:20 | 43.30045 | 5.76747 | 7208 ft | 278 kts | 268° |
| 2026-05-05 13:20 | 43.30015 | 5.74103 | 6930 ft | 275 kts | 268° |
| 2026-05-05 13:20 | 43.29982 | 5.71486 | 6617 ft | 274 kts | 267° |
| 2026-05-05 13:20 | 43.29948 | 5.68878 | 6377 ft | 271 kts | 267° |
| 2026-05-05 13:21 | 43.29914 | 5.66307 | 6126 ft | 269 kts | 267° |
| 2026-05-05 13:21 | 43.29875 | 5.63723 | 5758 ft | 272 kts | 267° |
| 2026-05-05 13:21 | 43.29849 | 5.61137 | 5474 ft | 271 kts | 268° |
| 2026-05-05 13:21 | 43.29818 | 5.58546 | 5133 ft | 272 kts | 268° |
| 2026-05-05 13:22 | 43.29783 | 5.55949 | 4848 ft | 270 kts | 268° |
| 2026-05-05 13:22 | 43.29745 | 5.53391 | 4545 ft | 268 kts | 267° |
| 2026-05-05 13:22 | 43.29706 | 5.50825 | 4183 ft | 269 kts | 268° |
| 2026-05-05 13:22 | 43.29668 | 5.48290 | 4116 ft | 259 kts | 268° |
| 2026-05-05 13:23 | 43.29632 | 5.45849 | 3982 ft | 253 kts | 268° |
| 2026-05-05 13:23 | 43.29598 | 5.43487 | 3878 ft | 244 kts | 268° |
| 2026-05-05 13:23 | 43.29563 | 5.41224 | 3749 ft | 231 kts | 268° |
| 2026-05-05 13:23 | 43.29528 | 5.39074 | 3592 ft | 220 kts | 268° |
| 2026-05-05 13:24 | 43.29496 | 5.37030 | 3482 ft | 208 kts | 268° |
| 2026-05-05 13:24 | 43.29463 | 5.35092 | 3350 ft | 198 kts | 272° |
| 2026-05-05 13:24 | 43.29904 | 5.33367 | 3193 ft | 191 kts | 307° |
| 2026-05-05 13:24 | 43.30907 | 5.32257 | 3062 ft | 185 kts | 336° |
| 2026-05-05 13:25 | 43.32141 | 5.31717 | 2933 ft | 187 kts | 342° |
| 2026-05-05 13:25 | 43.33355 | 5.31219 | 2798 ft | 178 kts | 340° |
| 2026-05-05 13:25 | 43.34506 | 5.30749 | 2671 ft | 171 kts | 340° |
| 2026-05-05 13:25 | 43.35652 | 5.30277 | 2486 ft | 174 kts | 340° |
| 2026-05-05 13:26 | 43.36825 | 5.29790 | 2247 ft | 175 kts | 340° |
| 2026-05-05 13:26 | 43.37802 | 5.28939 | 1901 ft | 159 kts | 310° |
| 2026-05-05 13:26 | 43.38618 | 5.27851 | 1633 ft | 168 kts | 313° |
| 2026-05-05 13:26 | 43.39455 | 5.26753 | 1332 ft | 165 kts | 311° |
| 2026-05-05 13:27 | 43.40253 | 5.25665 | 1051 ft | 159 kts | 311° |
| 2026-05-05 13:27 | 43.41029 | 5.24602 | 750 ft | 155 kts | 310° |
| 2026-05-05 13:27 | 43.41777 | 5.23567 | 450 ft | 150 kts | 309° |
| 2026-05-05 13:27 | 43.42494 | 5.22565 | 145 ft | 146 kts | 313° |
| 2026-05-05 13:28 | 43.43186 | 5.21618 | 32 ft | 131 kts | 310° |
| 2026-05-05 13:28 | 43.43723 | 5.20870 | 33 ft | 88 kts | 315° |
| 2026-05-05 13:28 | 43.43934 | 5.20604 | 32 ft | 17 kts | 349° |
| 2026-05-05 13:28 | 43.44013 | 5.20703 | 35 ft | 16 kts | 63° |
| 2026-05-05 13:29 | 43.44067 | 5.20839 | 33 ft | 16 kts | 60° |
| 2026-05-05 13:29 | 43.44103 | 5.20929 | 33 ft | 16 kts | 61° |
| 2026-05-05 13:29 | 43.44155 | 5.21061 | 36 ft | 15 kts | 61° |
| 2026-05-05 13:29 | 43.44203 | 5.21177 | 36 ft | 9 kts | 61° |
| 2026-05-05 13:30 | 43.44214 | 5.21254 | 36 ft | 10 kts | 109° |
| 2026-05-05 13:30 | 43.44153 | 5.21347 | 36 ft | 17 kts | 136° |
| 2026-05-05 13:30 | 43.44073 | 5.21350 | 36 ft | 13 kts | 206° |
| 2026-05-05 13:30 | 43.43991 | 5.21389 | 36 ft | 14 kts | 137° |
| 2026-05-05 13:31 | 43.43926 | 5.21497 | 36 ft | 16 kts | 113° |
| 2026-05-05 13:31 | 43.43968 | 5.21620 | 36 ft | 14 kts | 46° |
| 2026-05-05 13:31 | 43.44035 | 5.21707 | 36 ft | 13 kts | 43° |
| 2026-05-05 13:31 | 43.44081 | 5.21769 | 36 ft | 8 kts | 44° |
| 2026-05-05 13:32 | 43.44112 | 5.21783 | 36 ft | 1 kts | 327° |
| 2026-05-05 13:32 | 43.44119 | 5.21774 | 34 ft | 3 kts | 318° |
| 2026-05-05 13:32 | 43.44151 | 5.21737 | 36 ft | 9 kts | 320° |
| 2026-05-05 13:32 | 43.44200 | 5.21764 | 36 ft | 6 kts | 43° |
| 2026-05-05 13:33 | 43.44213 | 5.21792 | 36 ft | 2 kts | 71° |
| 2026-05-05 13:33 | 43.44214 | 5.21805 | 36 ft | 2 kts | 90° |
| 2026-05-05 13:33 | 43.44214 | 5.21811 | 36 ft | 0 kts | 90° |